Time;durP1;ratioP1;P1;durP2;ratioP2;P2;SDS_P1;SDS_P2;PMS_P1;PMS_P2;Temp;Humidity;BMP_temperature;BMP_pressure;BME280_temperature;BME280_humidity;BME280_pressure;Samples;Min_cycle;Max_cycle;Signal;HPM_P1;HPM_P2
2023/06/11 00:01:53;;;;;;;10.97;10.03;;;;;;;14.44;100.00;96316.22;7405191;19;20385;-78
2023/06/11 00:04:24;;;;;;;11.07;10.23;;;;;;;14.44;100.00;96334.84;7402157;19;20468;-78
2023/06/11 00:07:00;;;;;;;11.50;10.37;;;;;;;13.37;100.00;96197.06;7402876;19;20363;-78
2023/06/11 00:09:28;;;;;;;12.10;11.23;;;;;;;14.38;100.00;96352.16;7403111;19;20389;-78
2023/06/11 00:11:55;;;;;;;10.50;9.60;;;;;;;14.25;100.00;96318.84;7403974;19;20372;-78
2023/06/11 00:14:23;;;;;;;12.97;11.93;;;;;;;14.30;100.00;96330.00;7397134;19;20420;-78
2023/06/11 00:16:51;;;;;;;12.13;11.10;;;;;;;14.23;100.00;96351.09;7395829;19;20457;-78
2023/06/11 00:19:19;;;;;;;12.97;11.90;;;;;;;14.08;100.00;96334.09;7397429;19;20446;-78
2023/06/11 00:21:50;;;;;;;11.73;10.73;;;;;;;13.88;100.00;96327.19;7395927;19;20440;-78
2023/06/11 00:24:17;;;;;;;13.60;12.40;;;;;;;13.87;100.00;96339.72;7398746;19;20384;-78
2023/06/11 00:26:45;;;;;;;12.63;11.33;;;;;;;13.73;100.00;96341.28;7397071;19;20907;-78
2023/06/11 00:29:12;;;;;;;16.40;15.03;;;;;;;13.54;100.00;96318.09;7398631;19;20935;-78
2023/06/11 00:31:39;;;;;;;12.77;11.77;;;;;;;13.76;100.00;96361.88;7397462;19;20715;-78
2023/06/11 00:34:06;;;;;;;12.90;11.83;;;;;;;13.78;100.00;96347.13;7397615;19;20424;-78
2023/06/11 00:36:33;;;;;;;13.27;12.17;;;;;;;13.39;100.00;96289.69;7396978;19;20398;-79
2023/06/11 00:39:01;;;;;;;13.37;12.30;;;;;;;13.61;100.00;96345.56;7400283;19;20381;-78
2023/06/11 00:41:29;;;;;;;12.50;11.50;;;;;;;13.22;100.00;96310.16;7398680;19;20368;-78
2023/06/11 00:43:57;;;;;;;12.97;11.97;;;;;;;13.32;100.00;96338.06;7400329;19;20416;-78
2023/06/11 00:46:27;;;;;;;13.70;12.60;;;;;;;13.09;100.00;96308.69;7399955;19;20376;-78
2023/06/11 00:48:55;;;;;;;13.13;12.03;;;;;;;13.33;100.00;96344.91;7406534;19;20387;-78
2023/06/11 00:51:24;;;;;;;13.37;12.10;;;;;;;13.10;100.00;96314.75;7419704;19;20356;-78
2023/06/11 00:53:53;;;;;;;14.47;13.33;;;;;;;13.08;100.00;96323.03;7409784;19;20428;-77
2023/06/11 00:56:20;;;;;;;14.20;12.77;;;;;;;13.22;100.00;96344.69;7405127;19;20404;-77
2023/06/11 00:58:50;;;;;;;15.23;13.90;;;;;;;13.20;100.00;96346.13;7405065;19;20369;-77
2023/06/11 01:01:29;;;;;;;15.80;14.50;;;;;;;12.39;100.00;96260.66;7403735;19;20384;-77
2023/06/11 01:04:00;;;;;;;15.13;13.87;;;;;;;12.86;100.00;96342.22;7401368;19;20427;-77
2023/06/11 01:06:33;;;;;;;16.13;14.67;;;;;;;12.76;100.00;96346.13;7406263;19;20364;-77
2023/06/11 01:09:01;;;;;;;13.00;12.00;;;;;;;12.81;100.00;96340.56;7402810;19;20940;-77
2023/06/11 01:11:35;;;;;;;14.67;13.27;;;;;;;12.66;100.00;96326.16;7400595;19;20376;-77
2023/06/11 01:14:06;;;;;;;15.40;14.07;;;;;;;12.75;100.00;96341.94;7397901;19;20424;-78
2023/06/11 01:16:53;;;;;;;15.43;14.20;;;;;;;12.64;100.00;96332.91;7407017;19;20411;-78
2023/06/11 01:19:55;;;;;;;16.63;15.10;;;;;;;12.73;100.00;96355.53;7405972;19;20364;-78
2023/06/11 01:22:29;;;;;;;15.20;13.70;;;;;;;12.72;100.00;96351.34;7407216;19;20439;-78
2023/06/11 01:24:58;;;;;;;14.13;13.03;;;;;;;12.82;100.00;96368.66;7406671;19;20432;-78
2023/06/11 01:27:48;;;;;;;14.37;13.10;;;;;;;12.86;100.00;96360.78;7404352;19;20407;-78
2023/06/11 01:30:20;;;;;;;14.33;13.00;;;;;;;12.87;100.00;96360.44;7400618;19;20348;-78
2023/06/11 01:32:55;;;;;;;15.03;13.63;;;;;;;12.80;100.00;96346.97;7403186;19;20405;-78
2023/06/11 01:35:30;;;;;;;13.87;12.63;;;;;;;12.87;100.00;96363.09;7403067;19;20401;-78
2023/06/11 01:37:58;;;;;;;15.97;14.57;;;;;;;12.65;100.00;96355.66;7409849;19;20371;-78
2023/06/11 01:40:45;;;;;;;13.40;12.20;;;;;;;12.60;100.00;96335.47;7404233;19;20369;-77
2023/06/11 01:43:13;;;;;;;15.40;13.93;;;;;;;12.66;100.00;96336.00;7399139;19;20404;-77
2023/06/11 01:45:40;;;;;;;14.53;13.40;;;;;;;12.61;100.00;96344.97;7401325;19;20901;-78
2023/06/11 01:48:07;;;;;;;15.23;14.03;;;;;;;12.37;100.00;96326.50;7399982;19;20388;-77
2023/06/11 01:50:36;;;;;;;15.33;14.13;;;;;;;12.46;100.00;96344.94;7400479;19;20888;-77
2023/06/11 01:53:03;;;;;;;14.97;13.73;;;;;;;12.07;100.00;96313.56;7398958;19;20368;-77
2023/06/11 01:55:31;;;;;;;14.50;13.13;;;;;;;12.25;100.00;96334.50;7400834;19;20403;-77
2023/06/11 01:57:59;;;;;;;15.20;13.70;;;;;;;12.33;100.00;96365.41;7399080;19;20936;-77
2023/06/11 02:00:27;;;;;;;16.17;14.67;;;;;;;12.20;100.00;96338.16;7400064;19;20376;-77
2023/06/11 02:02:54;;;;;;;16.20;14.70;;;;;;;12.10;100.00;96338.63;7397670;19;20380;-77
2023/06/11 02:05:21;;;;;;;15.33;14.00;;;;;;;12.10;100.00;96334.09;7400703;19;20404;-77
2023/06/11 02:07:48;;;;;;;15.00;13.80;;;;;;;12.27;100.00;96356.91;7399465;19;20410;-77
2023/06/11 02:10:15;;;;;;;15.33;14.13;;;;;;;12.28;100.00;96373.59;7415423;19;20364;-77
2023/06/11 02:12:42;;;;;;;16.43;15.03;;;;;;;12.06;100.00;96351.78;7432681;19;20396;-78
2023/06/11 02:15:09;;;;;;;14.30;12.90;;;;;;;12.02;100.00;96347.47;7434459;19;20478;-78
2023/06/11 02:17:37;;;;;;;15.27;14.03;;;;;;;12.05;100.00;96371.44;7418724;19;20368;-77
2023/06/11 02:20:08;;;;;;;18.63;13.37;;;;;;;11.79;100.00;96339.25;7398135;19;20728;-77
2023/06/11 02:22:35;;;;;;;14.93;13.63;;;;;;;11.80;100.00;96348.72;7399695;19;20368;-77
2023/06/11 02:25:02;;;;;;;14.50;13.20;;;;;;;11.95;100.00;96352.56;7395451;19;20437;-77
2023/06/11 02:27:30;;;;;;;14.43;13.10;;;;;;;12.00;100.00;96373.53;7398938;19;20443;-77
2023/06/11 02:29:59;;;;;;;15.33;13.97;;;;;;;12.02;100.00;96374.75;7397916;19;20381;-76
2023/06/11 02:32:28;;;;;;;15.20;13.80;;;;;;;11.79;100.00;96347.19;7397530;19;20392;-77
2023/06/11 02:34:55;;;;;;;15.57;14.37;;;;;;;11.84;100.00;96344.31;7395976;19;20429;-77
2023/06/11 02:37:22;;;;;;;15.27;13.97;;;;;;;12.00;100.00;96373.53;7398939;19;20365;-77
2023/06/11 02:39:49;;;;;;;15.57;14.27;;;;;;;11.91;100.00;96341.09;7397452;19;20341;-77
2023/06/11 02:42:16;;;;;;;15.27;13.97;;;;;;;11.92;100.00;96322.22;7400373;19;20392;-77
2023/06/11 02:44:43;;;;;;;13.57;12.47;;;;;;;12.00;100.00;96354.97;7395520;19;20577;-77
2023/06/11 02:47:10;;;;;;;14.67;13.37;;;;;;;11.99;100.00;96361.38;7399022;19;20408;-77
2023/06/11 02:49:37;;;;;;;12.77;11.67;;;;;;;12.00;100.00;96357.63;7397038;19;20391;-77
2023/06/11 02:52:05;;;;;;;14.17;12.83;;;;;;;11.93;100.00;96346.84;7397681;19;20412;-77
2023/06/11 02:54:32;;;;;;;14.60;13.30;;;;;;;11.91;100.00;96351.69;7396341;19;20441;-77
2023/06/11 02:56:59;;;;;;;14.23;12.83;;;;;;;12.26;100.00;96378.44;7398405;19;20373;-77
2023/06/11 02:59:26;;;;;;;13.77;12.37;;;;;;;12.10;100.00;96359.81;7397389;19;20435;-77
2023/06/11 03:01:53;;;;;;;14.30;13.00;;;;;;;12.13;100.00;96375.81;7398527;19;20892;-77
2023/06/11 03:04:20;;;;;;;13.23;12.13;;;;;;;12.19;100.00;96363.13;7396103;19;20428;-77
2023/06/11 03:06:48;;;;;;;13.30;12.20;;;;;;;12.19;100.00;96375.59;7398539;19;20907;-77
2023/06/11 03:09:15;;;;;;;13.27;12.10;;;;;;;12.34;100.00;96377.56;7397556;19;20452;-77
2023/06/11 03:11:42;;;;;;;15.10;13.70;;;;;;;12.13;100.00;96369.75;7397574;19;20439;-77
2023/06/11 03:14:09;;;;;;;14.00;12.60;;;;;;;12.25;100.00;96375.03;7395045;19;20431;-77
2023/06/11 03:16:35;;;;;;;13.30;12.23;;;;;;;11.90;100.00;96344.84;7398545;19;20353;-78
2023/06/11 03:19:03;;;;;;;14.80;13.50;;;;;;;11.76;100.00;96355.78;7397135;19;20385;-77
2023/06/11 03:21:31;;;;;;;15.03;13.63;;;;;;;11.99;100.00;96374.63;7398312;19;20384;-77
2023/06/11 03:23:58;;;;;;;13.17;12.17;;;;;;;11.63;100.00;96341.78;7393540;19;20408;-77
2023/06/11 03:26:25;;;;;;;13.30;12.30;;;;;;;11.68;100.00;96338.88;7398228;19;20376;-77
2023/06/11 03:28:53;;;;;;;14.07;12.70;;;;;;;11.90;100.00;96371.34;7396309;19;20931;-77
2023/06/11 03:31:23;;;;;;;15.13;13.60;;;;;;;11.73;100.00;96351.88;7397626;19;20372;-77
2023/06/11 03:33:50;;;;;;;14.30;12.93;;;;;;;11.68;100.00;96368.00;7396146;19;20524;-77
2023/06/11 03:36:19;;;;;;;13.90;12.53;;;;;;;11.86;100.00;96360.63;7395048;19;20376;-77
2023/06/11 03:38:46;;;;;;;13.00;12.00;;;;;;;11.84;100.00;96350.38;7396270;19;20368;-77
2023/06/11 03:41:16;;;;;;;14.87;13.57;;;;;;;11.94;100.00;96372.22;7395476;19;20397;-77
2023/06/11 03:43:44;;;;;;;13.80;12.43;;;;;;;11.87;100.00;96364.06;7395537;19;20416;-76
2023/06/11 03:46:11;;;;;;;14.13;12.83;;;;;;;11.88;100.00;96357.66;7393692;19;20932;-76
2023/06/11 03:48:38;;;;;;;13.40;12.03;;;;;;;11.31;100.00;96347.94;7393063;19;20889;-76
2023/06/11 03:51:05;;;;;;;13.97;12.43;;;;;;;11.85;100.00;96382.94;7395264;19;20364;-77
2023/06/11 03:53:32;;;;;;;14.43;13.13;;;;;;;12.10;100.00;96375.72;7411183;19;20396;-77
2023/06/11 03:55:59;;;;;;;12.93;11.77;;;;;;;12.23;100.00;96376.47;7420440;19;20373;-77
2023/06/11 03:58:26;;;;;;;13.80;12.60;;;;;;;12.24;100.00;96354.16;7398955;19;20379;-77
2023/06/11 04:00:54;;;;;;;13.40;11.97;;;;;;;12.35;100.00;96356.00;7395129;19;20368;-77
2023/06/11 04:03:21;;;;;;;13.57;12.50;;;;;;;12.46;100.00;96390.78;7396639;19;20451;-77
2023/06/11 04:05:48;;;;;;;12.70;11.77;;;;;;;12.33;100.00;96357.44;7401762;19;20436;-76
2023/06/11 04:08:15;;;;;;;12.50;11.30;;;;;;;12.32;100.00;96369.94;7398952;19;20368;-77
2023/06/11 04:10:43;;;;;;;13.13;12.13;;;;;;;12.43;100.00;96386.16;7395692;19;20388;-77
2023/06/11 04:13:10;;;;;;;13.93;12.63;;;;;;;12.47;100.00;96379.06;7394397;19;20393;-77
2023/06/11 04:15:38;;;;;;;14.47;13.10;;;;;;;12.69;100.00;96388.41;7394831;19;20638;-76
2023/06/11 04:18:09;;;;;;;13.17;12.17;;;;;;;12.90;100.00;96396.91;7396742;19;20797;-77
2023/06/11 04:20:37;;;;;;;14.87;13.40;;;;;;;12.88;100.00;96379.78;7394520;19;20361;-76
2023/06/11 04:23:04;;;;;;;13.67;12.37;;;;;;;13.05;100.00;96384.00;7396802;19;20384;-77
2023/06/11 04:25:33;;;;;;;13.37;12.37;;;;;;;13.37;100.00;96400.78;7400406;19;20904;-77
2023/06/11 04:28:02;;;;;;;13.47;12.37;;;;;;;13.12;100.00;96373.59;7404326;19;20376;-77
2023/06/11 04:30:31;;;;;;;13.50;12.40;;;;;;;13.23;100.00;96385.28;7404212;19;20357;-77
2023/06/11 04:33:03;;;;;;;13.40;12.10;;;;;;;13.14;100.00;96379.31;7401644;19;20789;-77
2023/06/11 04:35:35;;;;;;;13.70;12.60;;;;;;;13.27;100.00;96380.81;7402745;19;20380;-77
2023/06/11 04:38:04;;;;;;;17.20;12.73;;;;;;;13.58;100.00;96383.47;7401355;19;20980;-77
2023/06/11 04:40:33;;;;;;;14.57;13.37;;;;;;;13.78;100.00;96392.28;7402924;19;20423;-77
2023/06/11 04:43:01;;;;;;;14.23;12.77;;;;;;;13.77;100.00;96374.81;7400931;19;20372;-77
2023/06/11 04:45:30;;;;;;;14.30;13.20;;;;;;;14.01;100.00;96403.03;7403084;19;20365;-77
2023/06/11 04:47:58;;;;;;;13.70;12.60;;;;;;;13.80;100.00;96383.97;7402221;19;20391;-77
2023/06/11 04:50:25;;;;;;;12.80;11.80;;;;;;;14.05;100.00;96390.63;7404769;19;20989;-77
2023/06/11 04:52:56;;;;;;;14.77;13.50;;;;;;;13.82;100.00;96379.84;7399905;19;20958;-77
2023/06/11 04:55:24;;;;;;;12.63;11.67;;;;;;;13.92;100.00;96365.28;7402712;19;20392;-77
2023/06/11 04:57:54;;;;;;;13.27;12.07;;;;;;;14.19;100.00;96367.00;7403533;19;20346;-77
2023/06/11 05:00:23;;;;;;;14.40;13.20;;;;;;;14.59;100.00;96407.75;7407185;19;20389;-77
2023/06/11 05:02:52;;;;;;;13.10;12.10;;;;;;;14.34;100.00;96385.91;7404518;19;20372;-77
2023/06/11 05:05:19;;;;;;;13.23;12.13;;;;;;;14.78;100.00;96411.16;7403775;19;20407;-77
2023/06/11 05:07:46;;;;;;;13.73;12.63;;;;;;;14.96;100.00;96384.13;7402313;19;20404;-77
2023/06/11 05:10:17;;;;;;;12.80;11.73;;;;;;;15.08;100.00;96386.59;7403799;19;20443;-77
2023/06/11 05:12:44;;;;;;;13.73;12.43;;;;;;;15.47;100.00;96416.59;7400779;19;20365;-77
2023/06/11 05:15:11;;;;;;;12.80;11.60;;;;;;;15.52;100.00;96389.66;7400976;19;20469;-77
2023/06/11 05:17:39;;;;;;;13.80;12.60;;;;;;;15.61;100.00;96424.06;7401619;19;20390;-77
2023/06/11 05:20:07;;;;;;;12.63;11.63;;;;;;;15.40;100.00;96402.38;7399423;19;20377;-77
2023/06/11 05:22:35;;;;;;;13.27;12.17;;;;;;;15.90;100.00;96415.41;7401935;19;20461;-77
2023/06/11 05:25:02;;;;;;;13.60;12.50;;;;;;;16.00;100.00;96398.00;7397402;19;20408;-77
2023/06/11 05:27:29;;;;;;;12.70;11.60;;;;;;;16.14;100.00;96397.44;7401343;19;20403;-77
2023/06/11 05:30:00;;;;;;;14.00;11.43;;;;;;;16.54;100.00;96413.63;7399763;19;20406;-77
2023/06/11 05:32:31;;;;;;;12.30;11.30;;;;;;;16.68;100.00;96414.94;7402536;19;20417;-78
2023/06/11 05:34:59;;;;;;;11.63;10.73;;;;;;;16.66;100.00;96401.16;7412309;19;20429;-78
2023/06/11 05:37:26;;;;;;;11.97;10.97;;;;;;;16.86;100.00;96394.59;7407721;19;20942;-77
2023/06/11 05:39:53;;;;;;;11.63;10.73;;;;;;;16.89;100.00;96417.88;7400487;19;20448;-77
2023/06/11 05:42:22;;;;;;;13.10;11.57;;;;;;;17.05;100.00;96420.34;7402170;19;20758;-77
2023/06/11 05:44:49;;;;;;;10.30;9.50;;;;;;;16.99;100.00;96395.88;7397956;19;20415;-77
2023/06/11 05:47:17;;;;;;;11.53;10.43;;;;;;;17.00;100.00;96397.41;7402681;19;20358;-77
2023/06/11 05:49:45;;;;;;;12.40;11.17;;;;;;;17.19;100.00;96404.47;7401044;19;20379;-77
2023/06/11 05:52:12;;;;;;;10.47;9.57;;;;;;;17.31;100.00;96419.47;7401923;19;20439;-77
2023/06/11 05:54:39;;;;;;;10.23;9.20;;;;;;;17.33;100.00;96401.16;7398930;19;20430;-77
2023/06/11 05:57:17;;;;;;;11.10;10.00;;;;;;;17.97;100.00;96428.47;7402142;19;20445;-77
2023/06/11 05:59:45;;;;;;;11.17;9.77;;;;;;;18.19;100.00;96424.81;7401499;19;20393;-77
2023/06/11 06:02:12;;;;;;;10.63;9.73;;;;;;;18.35;100.00;96437.91;7404065;19;20353;-77
2023/06/11 06:04:39;;;;;;;10.60;9.80;;;;;;;18.17;100.00;96411.03;7401662;19;20481;-78
2023/06/11 06:07:06;;;;;;;13.10;9.13;;;;;;;18.60;100.00;96427.31;7401303;19;20396;-77
2023/06/11 06:09:34;;;;;;;8.33;7.63;;;;;;;18.71;100.00;96414.78;7400967;19;20371;-77
2023/06/11 06:12:01;;;;;;;10.40;8.30;;;;;;;18.94;100.00;96429.78;7412139;19;20402;-77
2023/06/11 06:14:30;;;;;;;10.60;9.60;;;;;;;19.51;100.00;96446.78;7408538;19;20424;-78
2023/06/11 06:16:57;;;;;;;7.90;7.20;;;;;;;19.08;100.00;96435.19;7400059;19;20398;-76
2023/06/11 06:19:29;;;;;;;7.10;6.40;;;;;;;19.35;98.75;96427.59;7400718;19;20369;-76
2023/06/11 06:21:56;;;;;;;6.93;6.20;;;;;;;19.77;95.90;96437.66;7400695;19;20414;-76
2023/06/11 06:24:23;;;;;;;7.73;7.03;;;;;;;19.84;94.69;96447.59;7408555;19;20415;-77
2023/06/11 06:26:56;;;;;;;7.70;6.60;;;;;;;20.14;93.17;96444.50;7433582;19;20374;-77
2023/06/11 06:29:26;;;;;;;9.53;6.73;;;;;;;20.28;89.81;96447.94;7435435;19;20398;-77
2023/06/11 06:32:14;;;;;;;9.73;6.77;;;;;;;20.50;88.43;96437.97;7430102;19;20359;-76
2023/06/11 06:34:42;;;;;;;7.33;6.63;;;;;;;20.52;87.47;96432.97;7394135;19;20427;-75
2023/06/11 06:37:11;;;;;;;6.80;6.27;;;;;;;20.34;87.01;96427.63;7393834;19;20392;-76
2023/06/11 06:39:41;;;;;;;7.23;6.07;;;;;;;20.48;84.46;96437.59;7394903;19;20380;-76
2023/06/11 06:42:08;;;;;;;14.90;8.40;;;;;;;20.69;85.10;96439.44;7396733;19;20714;-76
2023/06/11 06:44:44;;;;;;;8.83;6.70;;;;;;;20.70;84.16;96445.56;7393580;19;20423;-76
2023/06/11 06:47:14;;;;;;;7.70;6.90;;;;;;;20.88;86.16;96457.03;7394800;19;20896;-76
2023/06/11 06:49:42;;;;;;;7.80;7.00;;;;;;;21.02;83.18;96456.22;7395828;19;20374;-76
2023/06/11 06:52:11;;;;;;;10.70;6.40;;;;;;;21.45;83.33;96457.56;7398846;19;20963;-76
2023/06/11 06:54:39;;;;;;;8.60;6.60;;;;;;;21.33;80.93;96451.84;7395488;19;20443;-76
2023/06/11 06:57:10;;;;;;;8.23;6.40;;;;;;;21.74;80.69;96451.97;7398545;19;20389;-76
2023/06/11 06:59:37;;;;;;;6.70;6.07;;;;;;;21.96;80.79;96439.13;7395991;19;20484;-77
2023/06/11 07:02:05;;;;;;;6.47;5.97;;;;;;;21.82;78.72;96434.63;7397158;19;20371;-76
2023/06/11 07:04:36;;;;;;;8.07;7.17;;;;;;;21.63;78.90;96451.28;7394774;19;20458;-77
2023/06/11 07:07:03;;;;;;;8.87;7.30;;;;;;;21.66;79.30;96467.44;7397957;19;20405;-76
2023/06/11 07:09:30;;;;;;;6.97;6.47;;;;;;;21.66;79.65;96462.03;7396597;19;20403;-77
2023/06/11 07:11:57;;;;;;;7.97;7.03;;;;;;;21.54;79.45;96446.34;7399460;19;20423;-77
2023/06/11 07:14:24;;;;;;;10.17;8.07;;;;;;;21.44;78.51;96447.94;7406983;19;20461;-77
2023/06/11 07:16:52;;;;;;;8.77;7.97;;;;;;;21.56;79.32;96456.72;7411635;19;20384;-78
2023/06/11 07:19:19;;;;;;;8.43;7.73;;;;;;;21.47;79.69;96457.91;7415113;19;20872;-78
2023/06/11 07:21:46;;;;;;;10.40;7.20;;;;;;;21.46;80.20;96458.31;7415855;19;20381;-78
2023/06/11 07:24:13;;;;;;;8.97;8.13;;;;;;;21.58;79.85;96439.03;7407965;19;20422;-77
2023/06/11 07:26:42;;;;;;;7.93;7.33;;;;;;;21.96;79.49;96447.19;7409000;19;20391;-78
2023/06/11 07:29:10;;;;;;;9.27;7.40;;;;;;;21.70;79.87;96452.00;7406921;19;20388;-77
2023/06/11 07:31:41;;;;;;;8.73;7.70;;;;;;;21.17;80.73;96426.16;7407759;19;20377;-77
2023/06/11 07:34:08;;;;;;;7.57;6.93;;;;;;;22.33;80.55;96468.84;7395693;19;20410;-77
2023/06/11 07:36:35;;;;;;;9.40;8.60;;;;;;;22.35;79.77;96454.97;7396902;19;20369;-77
2023/06/11 07:39:04;;;;;;;10.77;9.70;;;;;;;22.34;79.71;96435.34;7398057;19;20455;-77
2023/06/11 07:41:31;;;;;;;9.50;8.57;;;;;;;22.92;78.67;96463.22;7397069;19;20385;-77
2023/06/11 07:43:58;;;;;;;9.03;8.00;;;;;;;23.11;77.88;96458.41;7397009;19;20973;-77
2023/06/11 07:46:25;;;;;;;8.90;8.20;;;;;;;23.23;77.51;96458.59;7397806;19;20423;-78
2023/06/11 07:48:53;;;;;;;9.30;8.50;;;;;;;22.99;76.76;96470.50;7399133;19;20401;-77
2023/06/11 07:51:20;;;;;;;9.63;8.83;;;;;;;22.65;77.82;96473.13;7403924;19;20374;-77
2023/06/11 07:53:56;;;;;;;9.80;8.80;;;;;;;22.73;78.49;96466.50;7422361;19;20447;-77
2023/06/11 07:56:23;;;;;;;9.17;8.37;;;;;;;22.27;77.66;96440.78;7403332;19;20389;-77
2023/06/11 07:58:50;;;;;;;9.77;8.83;;;;;;;22.52;79.29;96427.06;7399433;19;20378;-77
2023/06/11 08:01:17;;;;;;;9.30;8.40;;;;;;;22.50;79.11;96469.06;7395601;19;20341;-76
2023/06/11 08:03:44;;;;;;;9.53;8.57;;;;;;;22.70;77.84;96461.91;7396406;19;20429;-77
2023/06/11 08:06:11;;;;;;;9.77;8.77;;;;;;;23.17;77.48;96470.25;7395070;19;20351;-77
2023/06/11 08:08:38;;;;;;;10.10;8.47;;;;;;;22.82;75.91;96464.09;7397573;19;20905;-77
2023/06/11 08:11:06;;;;;;;12.87;8.70;;;;;;;22.27;78.67;96467.72;7395726;19;20399;-76
2023/06/11 08:13:34;;;;;;;9.43;8.53;;;;;;;22.79;78.14;96461.44;7395759;19;20470;-76
2023/06/11 08:16:02;;;;;;;9.60;8.80;;;;;;;23.08;77.29;96470.75;7395634;19;20396;-76
2023/06/11 08:18:29;;;;;;;9.50;8.60;;;;;;;22.95;76.17;96448.94;7394469;19;20432;-76
2023/06/11 08:20:56;;;;;;;9.77;8.87;;;;;;;22.70;73.96;96461.91;7395225;19;20380;-76
2023/06/11 08:23:23;;;;;;;8.03;7.37;;;;;;;22.59;77.35;96447.81;7393749;19;20431;-77
2023/06/11 08:25:50;;;;;;;7.77;7.17;;;;;;;22.79;75.66;96456.03;7395553;19;20441;-77
2023/06/11 08:28:17;;;;;;;7.40;6.67;;;;;;;22.62;72.33;96465.84;7393882;19;20427;-77
2023/06/11 08:30:44;;;;;;;8.80;7.60;;;;;;;22.50;73.66;96450.97;7394438;19;20452;-77
2023/06/11 08:33:11;;;;;;;8.10;7.37;;;;;;;23.12;70.76;96468.78;7392569;19;20944;-77
2023/06/11 08:35:38;;;;;;;7.47;6.23;;;;;;;23.16;68.14;96455.25;7394660;19;20366;-77
2023/06/11 08:38:05;;;;;;;9.97;8.17;;;;;;;22.61;68.95;96465.09;7393705;19;20372;-76
2023/06/11 08:40:39;;;;;;;7.80;6.90;;;;;;;22.40;69.89;96468.75;7395110;19;20376;-77
2023/06/11 08:43:10;;;;;;;7.00;6.40;;;;;;;22.96;66.27;96471.28;7393688;19;20376;-76
2023/06/11 08:45:37;;;;;;;6.80;6.13;;;;;;;22.83;65.81;96454.84;7395397;19;20904;-76
2023/06/11 08:48:05;;;;;;;7.30;5.80;;;;;;;22.81;66.60;96459.09;7393955;19;20383;-77
2023/06/11 08:50:32;;;;;;;9.13;5.60;;;;;;;23.45;67.25;96444.81;7395366;19;20396;-76
2023/06/11 08:53:02;;;;;;;6.30;5.77;;;;;;;23.39;65.86;96468.81;7392929;19;20377;-77
2023/06/11 08:55:29;;;;;;;6.87;6.33;;;;;;;22.83;67.84;96462.94;7395368;19;20351;-76
2023/06/11 08:57:56;;;;;;;6.80;6.10;;;;;;;22.40;68.75;96465.31;7393949;19;20403;-76
2023/06/11 09:00:23;;;;;;;6.60;6.00;;;;;;;21.88;69.03;96451.88;7395217;19;20374;-76
2023/06/11 09:02:51;;;;;;;6.20;5.70;;;;;;;21.74;68.95;96463.50;7395262;19;20340;-76
2023/06/11 09:05:18;;;;;;;6.83;6.13;;;;;;;21.67;70.26;96443.97;7394539;19;20412;-76
2023/06/11 09:07:50;;;;;;;7.67;6.97;;;;;;;21.90;69.74;96464.94;7394947;19;20398;-76
2023/06/11 09:10:19;;;;;;;5.53;5.00;;;;;;;22.43;67.38;96469.88;7396602;19;20372;-76
2023/06/11 09:12:46;;;;;;;6.10;5.40;;;;;;;21.74;66.17;96450.03;7401054;19;20371;-77
2023/06/11 09:15:15;;;;;;;9.27;6.03;;;;;;;21.39;65.29;96453.75;7397596;19;20462;-76
2023/06/11 09:17:46;;;;;;;7.50;6.73;;;;;;;21.69;63.72;96455.09;7401477;19;20379;-76
2023/06/11 09:20:15;;;;;;;7.40;4.90;;;;;;;22.37;63.18;96469.56;7399625;19;20365;-77
2023/06/11 09:22:43;;;;;;;7.67;6.90;;;;;;;22.85;62.63;96451.78;7398255;19;20809;-77
2023/06/11 09:25:18;;;;;;;6.83;6.33;;;;;;;22.95;64.98;96467.06;7397046;19;20400;-77
2023/06/11 09:27:46;;;;;;;7.70;6.47;;;;;;;23.13;64.69;96477.63;7401635;19;20379;-77
2023/06/11 09:30:19;;;;;;;5.53;5.13;;;;;;;23.20;64.69;96470.22;7400058;19;20796;-76
2023/06/11 09:32:47;;;;;;;5.00;4.63;;;;;;;23.45;62.17;96463.72;7401806;19;20377;-77
2023/06/11 09:35:15;;;;;;;6.67;5.90;;;;;;;23.20;60.96;96442.47;7398787;19;20401;-77
2023/06/11 09:37:52;;;;;;;6.33;5.50;;;;;;;24.10;59.95;96485.94;7401842;19;20428;-77
2023/06/11 09:40:20;;;;;;;7.20;6.57;;;;;;;24.07;59.26;96482.13;7400168;19;20901;-77
2023/06/11 09:42:48;;;;;;;6.03;5.60;;;;;;;23.39;58.73;96481.56;7398910;19;20381;-77
2023/06/11 09:45:20;;;;;;;5.53;5.03;;;;;;;23.65;59.03;96474.66;7398241;19;20440;-77
2023/06/11 09:47:50;;;;;;;6.57;5.40;;;;;;;23.71;57.97;96473.78;7398991;19;20409;-77
2023/06/11 09:50:19;;;;;;;5.10;4.63;;;;;;;23.76;58.58;96467.91;7400919;19;20405;-77
2023/06/11 09:52:48;;;;;;;6.07;5.60;;;;;;;23.76;57.19;96480.66;7399292;19;20353;-77
2023/06/11 09:55:15;;;;;;;6.33;5.00;;;;;;;24.28;57.45;96488.31;7397905;19;20401;-77
2023/06/11 09:57:42;;;;;;;5.53;5.13;;;;;;;24.58;58.08;96482.06;7399097;19;20726;-76
2023/06/11 10:00:11;;;;;;;6.53;4.90;;;;;;;24.65;57.25;96487.31;7400180;19;20945;-76
2023/06/11 10:02:42;;;;;;;5.23;4.77;;;;;;;24.60;54.88;96491.28;7400728;19;20388;-77
2023/06/11 10:05:12;;;;;;;4.90;4.60;;;;;;;25.03;55.54;96485.84;7398312;19;20417;-77
2023/06/11 10:07:47;;;;;;;6.10;5.30;;;;;;;24.77;54.06;96462.38;7400612;19;20396;-77
2023/06/11 10:10:17;;;;;;;9.33;5.50;;;;;;;24.36;54.59;96470.84;7401220;19;20387;-76
2023/06/11 10:12:51;;;;;;;5.50;5.10;;;;;;;24.55;54.21;96461.22;7402163;19;20353;-77
2023/06/11 10:15:23;;;;;;;5.53;5.03;;;;;;;24.93;54.75;96477.91;7397108;19;20408;-77
2023/06/11 10:17:52;;;;;;;5.70;5.20;;;;;;;24.53;54.94;96504.16;7399555;19;20362;-77
2023/06/11 10:20:27;;;;;;;8.23;5.67;;;;;;;24.79;55.11;96486.28;7397922;19;20750;-77
2023/06/11 10:23:10;;;;;;;5.60;5.10;;;;;;;25.27;53.86;96488.47;7397399;19;20355;-77
2023/06/11 10:25:40;;;;;;;6.37;5.53;;;;;;;25.74;55.28;96474.69;7399414;19;20380;-76
2023/06/11 10:28:09;;;;;;;6.90;5.30;;;;;;;25.59;53.75;96483.13;7399785;19;20414;-76
2023/06/11 10:30:36;;;;;;;6.30;5.07;;;;;;;24.68;53.89;96464.84;7400669;19;20912;-76
2023/06/11 10:33:03;;;;;;;7.30;5.40;;;;;;;25.04;55.05;96475.78;7399816;19;20820;-77
2023/06/11 10:35:32;;;;;;;5.50;5.10;;;;;;;25.45;52.91;96496.22;7398436;19;20345;-76
2023/06/11 10:38:05;;;;;;;6.83;6.13;;;;;;;25.18;53.67;96496.38;7397124;19;20408;-77
2023/06/11 10:40:37;;;;;;;6.53;5.93;;;;;;;25.00;54.24;96491.31;7398951;19;20375;-76
2023/06/11 10:43:19;;;;;;;6.10;5.60;;;;;;;25.26;54.00;96506.66;7397016;19;20381;-76
2023/06/11 10:45:59;;;;;;;6.10;5.40;;;;;;;24.83;54.17;96478.88;7399452;19;20343;-76
2023/06/11 10:48:28;;;;;;;5.73;5.23;;;;;;;25.55;53.11;96501.41;7398091;19;21006;-76
2023/06/11 10:51:08;;;;;;;6.87;5.20;;;;;;;25.47;52.97;96477.59;7399420;19;20488;-77
2023/06/11 10:53:37;;;;;;;5.87;5.33;;;;;;;24.95;54.27;96475.53;7399046;19;20387;-77
2023/06/11 10:56:04;;;;;;;6.00;5.50;;;;;;;25.84;53.69;96479.13;7396782;19;20352;-77
2023/06/11 10:58:33;;;;;;;6.87;6.07;;;;;;;25.74;53.43;96501.78;7397891;19;20392;-77
2023/06/11 11:01:01;;;;;;;6.07;5.67;;;;;;;25.55;53.48;96477.03;7397059;19;20394;-77
2023/06/11 11:03:30;;;;;;;6.97;6.37;;;;;;;25.11;53.06;96467.53;7397755;19;20402;-77
2023/06/11 11:05:58;;;;;;;6.40;5.73;;;;;;;24.62;55.26;96490.88;7396478;19;20392;-77
2023/06/11 11:08:26;;;;;;;6.33;5.70;;;;;;;23.99;56.69;96477.22;7398295;19;20759;-77
2023/06/11 11:11:01;;;;;;;6.70;6.20;;;;;;;23.44;57.42;96464.88;7398162;19;20439;-77
2023/06/11 11:13:29;;;;;;;5.93;5.53;;;;;;;23.79;57.61;96456.31;7399753;19;20399;-76
2023/06/11 11:15:58;;;;;;;6.07;5.57;;;;;;;23.82;57.28;96468.22;7398788;19;20357;-77
2023/06/11 11:18:25;;;;;;;6.43;5.50;;;;;;;23.97;56.51;96458.72;7398312;19;20396;-77
2023/06/11 11:20:56;;;;;;;7.40;5.50;;;;;;;24.66;56.29;96481.50;7396984;19;20416;-77
2023/06/11 11:23:26;;;;;;;5.47;4.97;;;;;;;24.41;54.40;96483.88;7395116;19;20394;-77
2023/06/11 11:25:53;;;;;;;5.83;5.33;;;;;;;23.79;53.71;96452.84;7398543;19;20357;-77
2023/06/11 11:28:20;;;;;;;6.23;5.73;;;;;;;23.34;54.87;96466.56;7395699;19;20374;-77